Douds, Iowa
Current Conditions -  °F | °C
As of 2:55 AM on Monday 20 Oct 2014 (Local Time) from KFFL Reporting Station
Clear Clear  
Wind Chill: 50°   Ceiling: Unl
Heat Index: 50°   Visibility: NA
Dew Point: 45°   Wind: 8mph
Humidity: 82%   Direction: 240°WSW
Pressure: 29.89"   Gusts: NA
Location:  40.84°N, 92.09°W
Report Text: KFFL 200755Z AUTO 24007KT CLR 10/07 A2989 RMK AO2
Loading
Personal Weather Stations






























Interactive Weather Map
Tropical Storm Tracking
New forecast layout! Learn more

10-Day Weather Forecast

Advertisements
Track Severe Weather on mobile